RYR3WR LPMA-LPPT
Flight info
| Callsign | RYR3WR |
|---|---|
| Flight time | N/A |
| Altitude | 38000 |
| Route | DEGUN DCT NARTA DCT ESUTI |
| Aircraft | B738/M-SDE2E3FGHIRWXY/LB1 |
Departure
| Time | 2026-05-06 21:12 |
|---|---|
| Airport | Cristiano Ronaldo International Airport (LPMA) |
Arrival
| Time | N/A |
|---|---|
| Airport | Lisbon Humberto Delgado Airport (LPPT) |
| Time | Latitude | Longitude | Altitude | Speed | Heading |
|---|---|---|---|---|---|
| 2026-05-06 20:45 | 32.69471 | -16.77522 | 174 ft | 0 kts | 137° |
| 2026-05-06 21:02 | 32.69479 | -16.77531 | 176 ft | 3 kts | 142° |
| 2026-05-06 21:03 | 32.69496 | -16.77544 | 176 ft | 3 kts | 156° |
| 2026-05-06 21:03 | 32.69515 | -16.77551 | 175 ft | 3 kts | 177° |
| 2026-05-06 21:03 | 32.69533 | -16.77549 | 173 ft | 3 kts | 205° |
| 2026-05-06 21:03 | 32.69548 | -16.77537 | 173 ft | 1 kts | 225° |
| 2026-05-06 21:06 | 32.69547 | -16.77539 | 173 ft | 2 kts | 225° |
| 2026-05-06 21:07 | 32.69525 | -16.77565 | 166 ft | 8 kts | 225° |
| 2026-05-06 21:07 | 32.69468 | -16.77635 | 170 ft | 13 kts | 226° |
| 2026-05-06 21:07 | 32.69404 | -16.77714 | 167 ft | 14 kts | 226° |
| 2026-05-06 21:07 | 32.69333 | -16.77802 | 167 ft | 15 kts | 226° |
| 2026-05-06 21:08 | 32.69294 | -16.77860 | 167 ft | 0 kts | 246° |
| 2026-05-06 21:08 | 32.69293 | -16.77861 | 167 ft | 0 kts | 246° |
| 2026-05-06 21:09 | 32.69293 | -16.77862 | 166 ft | 1 kts | 252° |
| 2026-05-06 21:10 | 32.69289 | -16.77906 | 164 ft | 10 kts | 267° |
| 2026-05-06 21:10 | 32.69285 | -16.78029 | 161 ft | 18 kts | 256° |
| 2026-05-06 21:10 | 32.69192 | -16.78157 | 159 ft | 24 kts | 223° |
| 2026-05-06 21:10 | 32.69072 | -16.78295 | 159 ft | 20 kts | 227° |
| 2026-05-06 21:11 | 32.68983 | -16.78380 | 156 ft | 18 kts | 207° |
| 2026-05-06 21:11 | 32.68895 | -16.78425 | 155 ft | 13 kts | 232° |
| 2026-05-06 21:11 | 32.68937 | -16.78478 | 155 ft | 10 kts | 6° |
| 2026-05-06 21:11 | 32.68970 | -16.78414 | 156 ft | 10 kts | 82° |
| 2026-05-06 21:12 | 32.69007 | -16.78355 | 157 ft | 15 kts | 44° |
| 2026-05-06 21:12 | 32.69299 | -16.78016 | 161 ft | 101 kts | 44° |
| 2026-05-06 21:12 | 32.69972 | -16.77235 | 253 ft | 163 kts | 42° |
| 2026-05-06 21:12 | 32.70804 | -16.76185 | 904 ft | 187 kts | 49° |
| 2026-05-06 21:13 | 32.71419 | -16.74694 | 1518 ft | 214 kts | 75° |
| 2026-05-06 21:13 | 32.71475 | -16.72926 | 2374 ft | 217 kts | 95° |
| 2026-05-06 21:13 | 32.71061 | -16.71151 | 2942 ft | 236 kts | 108° |
| 2026-05-06 21:13 | 32.70404 | -16.69278 | 3460 ft | 257 kts | 111° |
| 2026-05-06 21:14 | 32.69629 | -16.67225 | 3823 ft | 288 kts | 112° |
| 2026-05-06 21:14 | 32.68794 | -16.65098 | 5077 ft | 276 kts | 113° |
| 2026-05-06 21:14 | 32.68061 | -16.63300 | 5937 ft | 280 kts | 114° |
| 2026-05-06 21:15 | 32.67316 | -16.61517 | 5842 ft | 293 kts | 115° |
| 2026-05-06 21:15 | 32.66388 | -16.59386 | 5918 ft | 284 kts | 116° |
| 2026-05-06 21:15 | 32.65519 | -16.57354 | 6137 ft | 271 kts | 110° |
| 2026-05-06 21:15 | 32.65017 | -16.55216 | 6500 ft | 270 kts | 95° |
| 2026-05-06 21:16 | 32.65100 | -16.53027 | 7421 ft | 261 kts | 72° |
| 2026-05-06 21:16 | 32.65837 | -16.51070 | 8260 ft | 264 kts | 53° |
| 2026-05-06 21:16 | 32.66385 | -16.50235 | 8525 ft | 271 kts | 44° |
| 2026-05-06 21:17 | 32.66950 | -16.49547 | 8770 ft | 276 kts | 40° |
| 2026-05-06 21:17 | 32.68300 | -16.47916 | 9707 ft | 275 kts | 42° |
| 2026-05-06 21:17 | 32.69630 | -16.46339 | 10744 ft | 271 kts | 41° |
| 2026-05-06 21:18 | 32.71001 | -16.44746 | 11433 ft | 280 kts | 41° |
| 2026-05-06 21:18 | 32.72382 | -16.43092 | 12263 ft | 286 kts | 42° |
| 2026-05-06 21:18 | 32.73845 | -16.41316 | 12321 ft | 319 kts | 42° |
| 2026-05-06 21:18 | 32.75483 | -16.39337 | 12379 ft | 348 kts | 43° |
| 2026-05-06 21:19 | 32.77201 | -16.37269 | 13110 ft | 354 kts | 42° |
| 2026-05-06 21:19 | 32.78946 | -16.35262 | 14294 ft | 341 kts | 39° |
| 2026-05-06 21:19 | 32.80654 | -16.33396 | 15486 ft | 333 kts | 38° |
| 2026-05-06 21:19 | 32.82420 | -16.31487 | 15666 ft | 357 kts | 38° |
| 2026-05-06 21:20 | 32.84307 | -16.29470 | 16143 ft | 365 kts | 38° |
| 2026-05-06 21:20 | 32.86185 | -16.27461 | 17076 ft | 365 kts | 38° |
| 2026-05-06 21:20 | 32.88125 | -16.25390 | 17173 ft | 385 kts | 38° |
| 2026-05-06 21:20 | 32.90076 | -16.23304 | 18524 ft | 362 kts | 38° |
| 2026-05-06 21:21 | 32.91925 | -16.21302 | 19380 ft | 366 kts | 38° |
| 2026-05-06 21:21 | 32.93884 | -16.19188 | 19181 ft | 394 kts | 38° |
| 2026-05-06 21:21 | 32.95943 | -16.16969 | 19621 ft | 399 kts | 38° |
| 2026-05-06 21:21 | 32.97971 | -16.14766 | 20558 ft | 392 kts | 38° |
| 2026-05-06 21:22 | 32.99974 | -16.12570 | 21275 ft | 392 kts | 38° |
| 2026-05-06 21:22 | 33.02002 | -16.10332 | 21538 ft | 405 kts | 38° |
| 2026-05-06 21:22 | 33.04111 | -16.08001 | 21568 ft | 421 kts | 38° |
| 2026-05-06 21:22 | 33.06241 | -16.05637 | 22483 ft | 409 kts | 38° |
| 2026-05-06 21:23 | 33.08309 | -16.03319 | 23104 ft | 414 kts | 38° |
| 2026-05-06 21:23 | 33.10433 | -16.00947 | 23524 ft | 417 kts | 38° |
| 2026-05-06 21:23 | 33.12523 | -15.98617 | 24470 ft | 406 kts | 38° |
| 2026-05-06 21:23 | 33.14593 | -15.96309 | 24905 ft | 410 kts | 38° |
| 2026-05-06 21:24 | 33.16661 | -15.94000 | 25659 ft | 403 kts | 37° |
| 2026-05-06 21:24 | 33.18678 | -15.91733 | 26576 ft | 393 kts | 37° |
| 2026-05-06 21:24 | 33.20618 | -15.89529 | 27252 ft | 388 kts | 37° |
| 2026-05-06 21:24 | 33.22592 | -15.87285 | 27421 ft | 398 kts | 37° |
| 2026-05-06 21:25 | 33.24644 | -15.84992 | 27504 ft | 410 kts | 37° |
| 2026-05-06 21:25 | 33.26749 | -15.82664 | 27941 ft | 411 kts | 37° |
| 2026-05-06 21:25 | 33.28833 | -15.80363 | 28711 ft | 405 kts | 36° |
| 2026-05-06 21:25 | 33.30878 | -15.78090 | 29493 ft | 400 kts | 36° |
| 2026-05-06 21:26 | 33.32936 | -15.75796 | 29524 ft | 413 kts | 36° |
| 2026-05-06 21:26 | 33.35103 | -15.73396 | 28984 ft | 437 kts | 36° |
| 2026-05-06 21:26 | 33.37373 | -15.70916 | 29071 ft | 445 kts | 36° |
| 2026-05-06 21:26 | 33.39669 | -15.68438 | 29557 ft | 443 kts | 36° |